createdAt,value
2022-08-05T00:04:46.587Z,66.83
2022-08-05T00:09:50.428Z,67.74
2022-08-05T00:14:43.771Z,67.69
2022-08-05T00:19:45.838Z,66.96
2022-08-05T00:24:54.830Z,68.52
2022-08-05T00:29:48.597Z,70.76
2022-08-05T00:35:03.918Z,72.10
2022-08-05T00:39:59.296Z,72.33
2022-08-05T00:44:52.728Z,73.49
2022-08-05T00:49:51.695Z,73.17
2022-08-05T00:54:45.219Z,73.23
2022-08-05T00:59:44.399Z,73.47
2022-08-05T01:04:42.018Z,73.71
2022-08-05T01:09:35.651Z,73.87
2022-08-05T01:14:38.567Z,73.51
2022-08-05T01:20:01.118Z,73.56
2022-08-05T01:25:53.260Z,74.38
2022-08-05T01:30:56.169Z,73.33
2022-08-05T01:35:53.433Z,74.67
2022-08-05T01:40:48.675Z,75.05
2022-08-05T01:45:43.758Z,76.17
2022-08-05T01:50:53.522Z,76.83
2022-08-05T01:55:48.711Z,78.22
2022-08-05T02:00:46.587Z,79.20
2022-08-05T02:05:42.682Z,78.10
2022-08-05T02:10:46.203Z,76.19
2022-08-05T02:15:50.985Z,75.24
2022-08-05T02:20:51.139Z,75.34
2022-08-05T02:25:50.120Z,74.41
2022-08-05T02:30:56.728Z,75.19
2022-08-05T02:35:56.248Z,72.62
2022-08-05T02:40:56.859Z,70.53
2022-08-05T02:45:53.972Z,70.31
2022-08-05T02:50:50.488Z,68.18
2022-08-05T02:55:54.834Z,65.45
2022-08-05T03:00:57.117Z,64.49
2022-08-05T03:06:56.334Z,64.86
2022-08-05T03:11:57.887Z,63.71
2022-08-05T03:16:32.241Z,63.42
2022-08-05T03:21:28.686Z,62.38
2022-08-05T03:26:30.841Z,61.93
2022-08-05T03:31:56.721Z,63.47
2022-08-05T03:36:42.024Z,65.06
2022-08-05T03:41:45.432Z,65.25
2022-08-05T03:46:45.853Z,64.09
2022-08-05T03:52:48.835Z,64.88
2022-08-05T03:57:16.638Z,65.66
2022-08-05T04:02:14.998Z,65.72
2022-08-05T04:07:13.097Z,66.54
2022-08-05T04:12:24.578Z,67.24
2022-08-05T04:17:19.089Z,66.51
2022-08-05T04:22:15.273Z,66.83
2022-08-05T04:27:15.526Z,65.39
2022-08-05T04:32:10.169Z,64.99
2022-08-05T04:37:04.388Z,65.44
2022-08-05T04:42:00.221Z,65.79
2022-08-05T04:46:55.158Z,65.16
2022-08-05T04:51:48.472Z,65.95
2022-08-05T04:56:58.731Z,68.15
2022-08-05T05:02:06.850Z,70.45
2022-08-05T05:07:09.439Z,70.16
2022-08-05T05:12:03.188Z,69.06
2022-08-05T05:16:57.941Z,67.44
2022-08-05T05:21:51.249Z,68.02
2022-08-05T05:26:51.848Z,70.92
2022-08-05T05:31:46.433Z,71.61
2022-08-05T05:36:41.369Z,71.48
2022-08-05T05:41:40.631Z,70.84
2022-08-05T05:46:35.123Z,74.85
2022-08-05T05:51:49.733Z,72.79
2022-08-05T05:56:45.576Z,77.43
2022-08-05T06:01:57.512Z,77.94
2022-08-05T06:06:51.364Z,77.37
2022-08-05T06:12:01.303Z,72.61
2022-08-05T06:16:55.633Z,74.09
2022-08-05T06:21:50.391Z,74.02
2022-08-05T06:26:52.378Z,70.42
2022-08-05T06:31:46.650Z,70.35
2022-08-05T06:36:57.065Z,67.63
2022-08-05T06:41:53.099Z,67.88
2022-08-05T06:46:46.601Z,67.51
2022-08-05T06:51:44.485Z,67.78
2022-08-05T06:56:38.726Z,69.36
2022-08-05T07:01:33.970Z,69.67
2022-08-05T07:06:27.634Z,70.67
2022-08-05T07:11:25.276Z,69.53
2022-08-05T07:18:02.277Z,64.89
2022-08-05T07:22:00.421Z,62.78
2022-08-05T07:26:54.802Z,63.05
2022-08-05T07:31:55.040Z,62.29
2022-08-05T07:36:51.341Z,58.74
2022-08-05T07:42:13.980Z,56.14
2022-08-05T07:46:57.983Z,54.14
2022-08-05T07:51:54.654Z,52.00
2022-08-05T07:57:01.695Z,50.59
2022-08-05T08:02:02.373Z,51.95
2022-08-05T08:07:00.862Z,50.41
2022-08-05T08:12:01.806Z,49.37
2022-08-05T08:16:57.200Z,50.75
2022-08-05T08:21:50.588Z,50.58
2022-08-05T08:26:46.209Z,47.41
2022-08-05T08:31:39.551Z,48.07
2022-08-05T08:36:49.140Z,47.73
2022-08-05T08:41:52.064Z,46.85
2022-08-05T08:46:52.691Z,46.67
2022-08-05T08:52:06.181Z,46.85
2022-08-05T08:57:11.266Z,47.08
2022-08-05T09:02:08.549Z,45.31
2022-08-05T09:07:02.119Z,45.66
2022-08-05T09:12:20.023Z,45.50
2022-08-05T09:17:40.147Z,43.74
2022-08-05T09:22:31.835Z,44.67
2022-08-05T09:28:04.212Z,43.49
2022-08-05T09:32:51.998Z,43.46
2022-08-05T09:38:12.009Z,42.67
2022-08-05T09:43:08.585Z,43.38
2022-08-05T09:48:04.256Z,44.08
2022-08-05T09:52:59.812Z,43.88
2022-08-05T09:57:58.599Z,44.94
2022-08-05T10:02:58.332Z,44.25
2022-08-05T10:08:36.481Z,44.88
2022-08-05T10:13:11.987Z,44.85
2022-08-05T10:18:16.932Z,44.39
2022-08-05T10:23:34.194Z,44.54
2022-08-05T10:28:29.608Z,44.03
2022-08-05T10:33:29.494Z,43.59
2022-08-05T10:38:33.056Z,42.34
2022-08-05T10:43:42.297Z,42.88
2022-08-05T10:48:56.413Z,43.37
2022-08-05T10:54:00.980Z,43.83
2022-08-05T10:59:12.842Z,43.15
2022-08-05T11:04:26.295Z,42.92
2022-08-05T11:09:32.418Z,42.99
2022-08-05T11:15:01.201Z,43.08
2022-08-05T11:20:10.500Z,42.93
2022-08-05T11:26:04.655Z,42.69
2022-08-05T11:31:54.138Z,41.98
2022-08-05T11:36:53.943Z,42.38
2022-08-05T11:42:02.287Z,42.23
2022-08-05T11:47:13.802Z,42.65
2022-08-05T11:52:12.266Z,41.37
2022-08-05T11:57:24.462Z,40.36
2022-08-05T12:02:30.298Z,41.67
2022-08-05T12:28:01.087Z,42.51
2022-08-05T12:34:35.707Z,42.01
2022-08-05T12:52:29.578Z,42.71
2022-08-05T12:58:39.079Z,43.00
2022-08-05T13:02:57.667Z,42.35
2022-08-05T13:08:01.621Z,42.74
2022-08-05T13:12:58.778Z,41.44
2022-08-05T13:17:59.287Z,41.46
2022-08-05T13:22:59.433Z,41.48
2022-08-05T13:27:57.610Z,41.29
2022-08-05T13:32:51.713Z,41.72
2022-08-05T13:37:46.258Z,40.04
2022-08-05T13:42:49.756Z,38.77
2022-08-05T13:48:09.755Z,38.50
2022-08-05T13:53:04.245Z,37.14
2022-08-05T13:58:03.080Z,37.42
2022-08-05T14:02:58.415Z,38.93
2022-08-05T14:08:03.293Z,38.97
2022-08-05T14:13:01.137Z,37.69
2022-08-05T14:17:59.505Z,37.51
2022-08-05T14:22:53.689Z,38.10
2022-08-05T14:27:48.686Z,37.37
2022-08-05T14:32:42.731Z,40.58
2022-08-05T14:37:45.531Z,39.46
2022-08-05T14:42:42.389Z,37.68
2022-08-05T14:48:02.948Z,37.79
2022-08-05T14:52:53.449Z,39.94
2022-08-05T14:57:56.045Z,39.44
2022-08-05T15:02:58.211Z,38.80
2022-08-05T15:09:03.541Z,40.58
2022-08-05T15:14:34.642Z,39.43
2022-08-05T15:19:50.573Z,38.57
2022-08-05T15:24:48.861Z,37.85
2022-08-05T15:29:49.592Z,38.03
2022-08-05T15:34:49.137Z,39.59
2022-08-05T15:41:03.838Z,38.02
2022-08-05T15:44:58.617Z,39.58
2022-08-05T15:50:38.385Z,38.29
2022-08-05T15:56:18.874Z,40.10
2022-08-05T16:01:39.578Z,40.67
2022-08-05T16:06:35.732Z,38.75
2022-08-05T16:12:20.532Z,38.68
2022-08-05T16:17:39.637Z,38.02
2022-08-05T16:24:12.891Z,41.56
2022-08-05T16:29:50.912Z,37.78
2022-08-05T16:34:50.965Z,38.98
2022-08-05T16:40:34.120Z,40.87
2022-08-05T16:46:04.578Z,39.21
2022-08-05T16:51:10.125Z,37.75
2022-08-05T16:56:14.281Z,37.74
2022-08-05T17:06:35.335Z,38.83
2022-08-05T17:11:35.918Z,41.06
2022-08-05T17:16:43.764Z,43.19
2022-08-05T17:21:51.609Z,43.23
2022-08-05T17:27:02.647Z,41.76
2022-08-05T17:38:57.184Z,42.12
2022-08-05T17:51:50.836Z,47.63
2022-08-05T17:57:59.777Z,46.68
2022-08-05T18:10:00.014Z,55.80
2022-08-05T18:15:38.538Z,60.52
2022-08-05T18:21:19.944Z,74.39
2022-08-05T18:32:12.681Z,83.15
2022-08-05T18:37:12.292Z,98.44
2022-08-05T18:42:11.482Z,96.32
2022-08-05T18:47:12.332Z,96.40
2022-08-05T18:52:33.092Z,100.00
2022-08-05T18:57:50.126Z,100.00
2022-08-05T19:02:48.892Z,100.00
2022-08-05T19:07:50.259Z,100.00
2022-08-05T19:12:46.148Z,100.00
2022-08-05T19:18:08.355Z,100.00
2022-08-05T19:22:57.160Z,100.00
2022-08-05T19:27:52.259Z,100.00
2022-08-05T19:33:34.076Z,100.00
2022-08-05T19:50:38.255Z,100.00
2022-08-05T19:56:14.804Z,100.00
2022-08-05T20:01:28.650Z,100.00
2022-08-05T20:07:49.376Z,100.00
2022-08-05T20:12:17.508Z,100.00
2022-08-05T20:17:23.216Z,100.00
2022-08-05T20:22:21.759Z,100.00
2022-08-05T20:27:41.557Z,100.00
2022-08-05T20:32:45.237Z,100.00
2022-08-05T20:38:06.332Z,100.00
2022-08-05T20:42:55.480Z,100.00
2022-08-05T20:48:00.625Z,100.00
2022-08-05T20:52:54.187Z,100.00
2022-08-05T20:57:47.669Z,100.00
2022-08-05T21:02:51.841Z,100.00
2022-08-05T21:07:52.035Z,100.00
2022-08-05T21:12:57.774Z,100.00
2022-08-05T21:17:58.650Z,100.00
2022-08-05T21:22:54.478Z,100.00
2022-08-05T21:27:52.583Z,100.00
2022-08-05T21:32:46.495Z,100.00
2022-08-05T21:37:41.359Z,100.00
2022-08-05T21:42:44.871Z,100.00
2022-08-05T21:47:56.672Z,100.00
2022-08-05T21:52:50.987Z,100.00
2022-08-05T21:57:45.780Z,100.00
2022-08-05T22:02:41.726Z,100.00
2022-08-05T22:07:40.144Z,100.00
2022-08-05T22:12:51.807Z,100.00
2022-08-05T22:17:48.678Z,100.00
2022-08-05T22:23:17.081Z,100.00
2022-08-05T22:28:15.956Z,100.00
2022-08-05T22:33:15.650Z,100.00
2022-08-05T22:38:09.882Z,100.00
2022-08-05T22:43:03.538Z,100.00
2022-08-05T22:47:59.736Z,100.00
2022-08-05T22:52:54.054Z,100.00
2022-08-05T22:57:47.518Z,100.00
2022-08-05T23:02:46.952Z,100.00
2022-08-05T23:07:48.366Z,100.00
2022-08-05T23:12:44.072Z,100.00
2022-08-05T23:18:02.434Z,100.00
2022-08-05T23:22:55.906Z,100.00
2022-08-05T23:28:00.157Z,100.00
2022-08-05T23:32:54.381Z,100.00
2022-08-05T23:37:47.807Z,100.00
2022-08-05T23:42:47.452Z,100.00
2022-08-05T23:47:48.333Z,100.00
2022-08-05T23:52:50.044Z,100.00
2022-08-05T23:57:48.847Z,100.00
